Time Latitude Longitude Accuracy (66% radius in meters) Altitude (meters) Speed (km/hour) Bearing (degrees) Battery (%) GPS flag
11:02:16 31.935996 34.949437 4 132 0 0 78 1 delete
11:02:06 31.935996 34.949437 3 132 0 0 78 1 delete
11:01:55 31.935996 34.949437 3 132 0 0 78 1 delete
11:01:45 31.935996 34.949437 4 132 0 0 78 1 delete
11:01:35 31.935996 34.949437 4 132 0 0 78 1 delete
11:01:24 31.935996 34.949437 4 132 0 0 78 1 delete
11:01:14 31.935996 34.949437 4 132 0 0 78 1 delete
11:01:04 31.935996 34.949437 4 132 0 0 78 1 delete
11:00:54 31.935996 34.949438 5 131 0.40999999642372 232 78 1 delete
11:00:43 31.936052 34.949458 7 131 0.23999999463558 160 78 1 delete
11:00:33 31.936056 34.949448 5 131 0.22999998927116 194.89999389648 78 1 delete
11:00:23 31.936065 34.949471 6 131 0.74000000953674 171.30000305176 78 1 delete
11:00:13 31.936072 34.949462 5 132 0.6599999666214 49.5 78 1 delete
11:00:02 31.936067 34.949432 8 131 0.1799999922514 99.699996948242 78 1 delete
11:00:01 31.936067 34.949428 8 131 0.34999999403954 99.5 78 1 delete
10:59:52 31.936044 34.949403 6 131 0.089999996125698 147.89999389648 78 1 delete
10:59:45 31.936083 34.949322 7 129 2.6199998855591 55.799999237061 78 1 delete
10:59:41 31.936024 34.949238 8 129 1.3399999141693 52 78 1 delete
10:59:38 31.936000 34.949226 7 129 1.4900000095367 56.799999237061 78 1 delete
10:59:33 31.935917 34.949146 6 127 2.4299998283386 27.299999237061 78 1 delete
10:59:31 31.935870 34.949127 6 127 2.6399998664856 17.89999961853 78 1 delete
10:59:29 31.935821 34.949119 6 127 2.4400000572205 31.700000762939 78 1 delete
10:59:25 31.935743 34.949040 6 126 3.2599999904633 50.200000762939 78 1 delete
10:59:22 31.935669 34.948980 6 126 3.1599998474121 16.799999237061 78 1 delete
10:59:21 31.935641 34.948970 6 126 3.1299998760223 8.6000003814697 78 1 delete
10:59:19 31.935576 34.948957 7 126 2.9700000286102 11.60000038147 78 1 delete
10:59:16 31.935485 34.948932 6 126 2.1900000572205 30.39999961853 78 1 delete
10:59:12 31.935396 34.948868 6 126 2.6499998569489 21.89999961853 78 1 delete
10:59:10 31.935346 34.948840 6 126 3.0199999809265 30 78 1 delete
10:59:08 31.935306 34.948801 6 126 2.5499999523163 36.700000762939 78 1 delete
10:59:04 31.935230 34.948717 6 126 3.3499999046326 49.900001525879 78 1 delete
10:59:01 31.935161 34.948633 6 126 2.9500000476837 79.400001525879 78 1 delete
10:59:00 31.935161 34.948596 6 126 2.6799998283386 89.400001525879 78 1 delete
10:58:58 31.935149 34.948528 7 127 3.2799999713898 86.400001525879 78 1 delete
10:58:54 31.935090 34.948412 6 127 3 56.599998474121 78 1 delete
10:58:51 31.935020 34.948317 6 127 3.2599999904633 37.599998474121 78 1 delete
10:58:49 31.934968 34.948274 6 127 3 21.200000762939 78 1 delete
10:58:48 31.934940 34.948257 6 127 2.6900000572205 14.60000038147 78 1 delete
10:58:44 31.934836 34.948216 6 127 2.5999999046326 33.400001525879 78 1 delete
10:58:41 31.934755 34.948170 6 128 3.3699998855591 21.89999961853 78 1 delete
10:58:39 31.934693 34.948149 6 128 2.9199998378754 359.70001220703 78 1 delete
10:58:38 31.934662 34.948141 6 128 3.3399999141693 338.10000610352 78 1 delete
10:58:35 31.934555 34.948161 6 128 2.8699998855591 16.700000762939 78 1 delete
10:58:31 31.934451 34.948103 6 128 3.1099998950958 43.200000762939 78 1 delete
10:58:28 31.934371 34.948042 6 128 3.2200000286102 16.799999237061 78 1 delete
10:58:25 31.934282 34.948009 6 129 2.8899998664856 10.5 78 1 delete
10:58:22 31.934193 34.947989 6 129 3.3599998950958 12.5 78 1 delete
10:58:18 31.934077 34.947943 6 130 3.3199999332428 345.39999389648 78 1 delete
10:58:15 31.933978 34.947960 6 130 3.1699998378754 345.20001220703 78 1 delete
10:58:12 31.933870 34.947989 6 130 3.3299999237061 25.200000762939 78 1 delete